createdAt,value
2023-01-26T00:01:37.671Z,8.68
2023-01-26T00:04:05.241Z,8.80
2023-01-26T00:06:32.683Z,8.90
2023-01-26T00:09:00.271Z,9.07
2023-01-26T00:11:31.915Z,9.45
2023-01-26T00:14:01.071Z,8.48
2023-01-26T00:16:28.710Z,9.43
2023-01-26T00:18:56.318Z,9.50
2023-01-26T00:21:24.929Z,10.40
2023-01-26T00:23:53.236Z,9.35
2023-01-26T00:26:24.524Z,9.65
2023-01-26T00:28:53.544Z,9.52
2023-01-26T00:31:28.079Z,9.48
2023-01-26T00:33:56.796Z,9.07
2023-01-26T00:36:24.636Z,9.15
2023-01-26T00:38:52.198Z,8.90
2023-01-26T00:41:38.145Z,9.18
2023-01-26T00:44:05.667Z,9.85
2023-01-26T00:46:33.158Z,8.93
2023-01-26T00:49:01.441Z,10.45
2023-01-26T00:51:29.001Z,8.82
2023-01-26T00:53:57.308Z,8.63
2023-01-26T00:56:27.928Z,9.23
2023-01-26T00:58:55.444Z,8.75
2023-01-26T01:01:22.883Z,9.23
2023-01-26T01:03:52.224Z,8.43
2023-01-26T01:06:19.724Z,7.30
2023-01-26T01:08:47.288Z,8.43
2023-01-26T01:11:14.994Z,7.25
2023-01-26T01:13:42.893Z,8.20
2023-01-26T01:16:14.250Z,7.80
2023-01-26T01:18:42.609Z,7.82
2023-01-26T01:21:13.243Z,7.75
2023-01-26T01:23:41.330Z,7.47
2023-01-26T01:26:09.750Z,8.57
2023-01-26T01:28:37.939Z,8.15
2023-01-26T01:31:10.967Z,6.90
2023-01-26T01:33:39.228Z,7.63
2023-01-26T01:36:10.398Z,7.95
2023-01-26T01:38:37.986Z,8.33
2023-01-26T01:41:06.058Z,8.20
2023-01-26T01:43:34.027Z,7.65
2023-01-26T01:46:07.933Z,8.15
2023-01-26T01:48:45.966Z,7.20
2023-01-26T01:51:19.425Z,8.00
2023-01-26T01:53:50.634Z,7.65
2023-01-26T01:56:23.081Z,6.53
2023-01-26T01:58:53.930Z,7.95
2023-01-26T02:01:22.988Z,7.35
2023-01-26T02:03:54.341Z,7.60
2023-01-26T02:06:36.615Z,7.63
2023-01-26T02:11:44.996Z,6.75
2023-01-26T02:14:15.565Z,7.65
2023-01-26T02:16:43.217Z,7.97
2023-01-26T02:19:26.061Z,7.90
2023-01-26T02:21:58.747Z,8.73
2023-01-26T02:24:32.396Z,7.95
2023-01-26T02:27:00.057Z,7.68
2023-01-26T02:29:28.759Z,8.10
2023-01-26T02:31:56.978Z,7.15
2023-01-26T02:34:28.791Z,7.85
2023-01-26T02:37:00.711Z,7.22
2023-01-26T02:39:40.639Z,7.90
2023-01-26T02:42:26.735Z,8.38
2023-01-26T02:44:54.563Z,9.80
2023-01-26T02:47:21.987Z,8.20
2023-01-26T02:49:52.297Z,8.30
2023-01-26T02:52:28.482Z,8.50
2023-01-26T02:55:19.098Z,8.43
2023-01-26T02:57:47.266Z,8.63
2023-01-26T03:00:22.406Z,8.73
2023-01-26T03:02:53.493Z,8.27
2023-01-26T03:05:21.112Z,8.75
2023-01-26T03:07:48.811Z,8.25
2023-01-26T03:10:17.369Z,8.10
2023-01-26T03:12:45.863Z,8.05
2023-01-26T03:15:32.082Z,8.75
2023-01-26T03:18:26.672Z,7.88
2023-01-26T03:21:12.488Z,8.48
2023-01-26T03:23:58.440Z,7.43
2023-01-26T03:26:46.639Z,8.80
2023-01-26T03:29:14.219Z,8.40
2023-01-26T03:31:43.497Z,8.13
2023-01-26T03:34:11.468Z,8.25
2023-01-26T03:36:39.869Z,8.20
2023-01-26T03:39:32.680Z,7.75
2023-01-26T03:42:19.878Z,8.23
2023-01-26T03:45:05.840Z,8.13
2023-01-26T03:47:54.819Z,8.77
2023-01-26T03:50:41.535Z,7.88
2023-01-26T03:53:36.009Z,7.80
2023-01-26T03:56:18.499Z,7.68
2023-01-26T03:58:50.680Z,7.13
2023-01-26T04:01:21.741Z,8.07
2023-01-26T04:04:12.387Z,7.90
2023-01-26T04:07:05.323Z,7.45
2023-01-26T04:09:34.247Z,7.63
2023-01-26T04:12:01.885Z,6.68
2023-01-26T04:14:50.132Z,7.78
2023-01-26T04:17:42.768Z,7.93
2023-01-26T04:20:29.340Z,7.18
2023-01-26T04:22:56.968Z,8.07
2023-01-26T04:25:24.441Z,8.05
2023-01-26T04:27:52.129Z,8.18
2023-01-26T04:30:20.107Z,7.88
2023-01-26T04:32:48.447Z,7.70
2023-01-26T04:35:18.512Z,7.47
2023-01-26T04:37:48.485Z,8.35
2023-01-26T04:40:16.227Z,8.23
2023-01-26T04:42:43.904Z,7.05
2023-01-26T04:45:12.524Z,7.68
2023-01-26T04:47:40.109Z,7.50
2023-01-26T04:50:08.297Z,7.45
2023-01-26T04:52:35.813Z,7.43
2023-01-26T04:55:03.795Z,9.73
2023-01-26T04:57:33.101Z,7.53
2023-01-26T05:00:03.734Z,7.05
2023-01-26T05:02:31.219Z,7.90
2023-01-26T05:04:58.657Z,7.18
2023-01-26T05:07:26.177Z,7.18
2023-01-26T05:09:55.786Z,7.43
2023-01-26T05:12:45.989Z,8.25
2023-01-26T05:15:31.995Z,7.40
2023-01-26T05:18:13.794Z,7.82
2023-01-26T05:20:52.317Z,7.32
2023-01-26T05:23:27.587Z,8.70
2023-01-26T05:26:13.456Z,8.23
2023-01-26T05:29:01.117Z,7.65
2023-01-26T05:31:28.844Z,7.90
2023-01-26T05:33:56.438Z,8.68
2023-01-26T05:36:24.900Z,8.43
2023-01-26T05:38:52.478Z,8.40
2023-01-26T05:41:26.068Z,8.18
2023-01-26T05:44:10.363Z,7.38
2023-01-26T05:46:52.368Z,7.80
2023-01-26T05:49:20.038Z,8.48
2023-01-26T05:51:47.853Z,8.38
2023-01-26T05:54:15.788Z,8.82
2023-01-26T05:56:43.344Z,8.70
2023-01-26T05:59:10.914Z,9.00
2023-01-26T06:01:39.355Z,8.57
2023-01-26T06:04:08.741Z,8.73
2023-01-26T06:06:42.967Z,9.60
2023-01-26T06:09:22.034Z,8.05
2023-01-26T06:12:21.341Z,8.60
2023-01-26T06:15:00.201Z,8.55
2023-01-26T06:17:40.488Z,8.85
2023-01-26T06:20:11.450Z,8.20
2023-01-26T06:22:39.319Z,8.27
2023-01-26T06:25:07.018Z,8.52
2023-01-26T06:27:36.335Z,8.05
2023-01-26T06:30:11.597Z,8.38
2023-01-26T06:32:39.238Z,7.70
2023-01-26T06:35:08.496Z,8.25
2023-01-26T06:37:36.150Z,7.72
2023-01-26T06:40:03.939Z,9.20
2023-01-26T06:42:31.867Z,8.55
2023-01-26T06:44:59.467Z,8.32
2023-01-26T06:47:27.009Z,7.65
2023-01-26T06:49:54.557Z,7.18
2023-01-26T06:52:30.222Z,7.53
2023-01-26T06:55:03.966Z,7.68
2023-01-26T06:57:52.386Z,7.25
2023-01-26T07:00:40.236Z,7.70
2023-01-26T07:03:26.478Z,7.22
2023-01-26T07:05:53.925Z,7.78
2023-01-26T07:08:21.440Z,7.63
2023-01-26T07:10:50.154Z,7.43
2023-01-26T07:13:17.716Z,8.25
2023-01-26T07:15:45.100Z,7.68
2023-01-26T07:18:12.615Z,6.95
2023-01-26T07:20:40.020Z,7.32
2023-01-26T07:23:07.410Z,6.90
2023-01-26T07:25:34.899Z,8.55
2023-01-26T07:28:02.311Z,8.40
2023-01-26T07:30:29.757Z,9.40
2023-01-26T07:33:00.676Z,7.43
2023-01-26T07:35:29.761Z,7.93
2023-01-26T07:37:59.044Z,8.63
2023-01-26T07:40:26.570Z,7.63
2023-01-26T07:42:56.231Z,7.53
2023-01-26T07:45:48.599Z,9.23
2023-01-26T07:50:45.340Z,9.20
2023-01-26T07:53:15.361Z,8.98
2023-01-26T07:55:45.623Z,8.98
2023-01-26T07:58:13.622Z,8.43
2023-01-26T08:00:41.497Z,7.22
2023-01-26T08:03:08.985Z,8.93
2023-01-26T08:05:38.621Z,7.88
2023-01-26T08:08:06.542Z,8.93
2023-01-26T08:10:34.015Z,8.68
2023-01-26T08:13:01.811Z,9.48
2023-01-26T08:15:30.179Z,9.70
2023-01-26T08:17:57.607Z,8.57
2023-01-26T08:20:25.050Z,9.35
2023-01-26T08:22:52.490Z,8.02
2023-01-26T08:25:19.934Z,9.52
2023-01-26T08:27:47.415Z,10.32
2023-01-26T08:30:15.955Z,9.68
2023-01-26T08:32:43.398Z,9.15
2023-01-26T08:35:10.848Z,8.75
2023-01-26T08:37:38.660Z,8.63
2023-01-26T08:40:07.542Z,8.88
2023-01-26T08:42:35.008Z,9.02
2023-01-26T08:45:02.512Z,8.82
2023-01-26T08:47:29.905Z,10.00
2023-01-26T08:49:57.389Z,8.93
2023-01-26T08:52:24.840Z,10.05
2023-01-26T08:54:52.355Z,9.95
2023-01-26T08:57:19.889Z,10.98
2023-01-26T08:59:47.388Z,8.90
2023-01-26T09:02:14.861Z,10.50
2023-01-26T09:04:42.309Z,8.43
2023-01-26T09:07:10.416Z,8.68
2023-01-26T09:09:38.520Z,10.15
2023-01-26T09:12:06.268Z,8.93
2023-01-26T09:14:33.660Z,9.18
2023-01-26T09:17:01.100Z,10.13
2023-01-26T09:19:30.906Z,8.48
2023-01-26T09:21:58.654Z,9.32
2023-01-26T09:24:26.299Z,10.07
2023-01-26T09:26:53.687Z,11.02
2023-01-26T09:29:21.204Z,9.80
2023-01-26T09:31:48.717Z,10.10
2023-01-26T09:34:16.258Z,10.32
2023-01-26T09:36:43.671Z,10.73
2023-01-26T09:39:11.160Z,9.48
2023-01-26T09:42:08.033Z,10.55
2023-01-26T09:44:51.386Z,11.02
2023-01-26T09:47:28.665Z,10.13
2023-01-26T09:50:11.658Z,10.77
2023-01-26T09:52:52.789Z,10.55
2023-01-26T09:55:22.500Z,11.63
2023-01-26T09:57:54.888Z,12.18
2023-01-26T10:00:25.901Z,10.88
2023-01-26T10:03:17.479Z,12.38
2023-01-26T10:06:27.007Z,12.13
2023-01-26T10:09:16.016Z,10.73
2023-01-26T10:11:56.351Z,11.05
2023-01-26T10:14:35.831Z,11.68
2023-01-26T10:17:06.206Z,11.35
2023-01-26T10:19:45.033Z,11.52
2023-01-26T10:22:22.607Z,11.80
2023-01-26T10:24:52.682Z,11.73
2023-01-26T10:27:20.292Z,11.90
2023-01-26T10:29:47.733Z,13.70
2023-01-26T10:32:18.202Z,11.20
2023-01-26T10:34:48.297Z,13.20
2023-01-26T10:37:26.450Z,11.48
2023-01-26T10:39:59.919Z,12.10
2023-01-26T10:42:30.630Z,12.75
2023-01-26T10:45:00.513Z,12.23
2023-01-26T10:47:28.989Z,11.13
2023-01-26T10:50:35.015Z,12.40
2023-01-26T10:53:04.831Z,13.10
2023-01-26T10:55:33.775Z,11.95
2023-01-26T10:58:01.992Z,11.50
2023-01-26T11:00:34.171Z,12.25
2023-01-26T11:05:40.996Z,12.95
2023-01-26T11:08:33.888Z,11.75
2023-01-26T11:11:01.669Z,11.00
2023-01-26T11:13:29.763Z,10.50
2023-01-26T11:16:22.739Z,11.93
2023-01-26T11:19:09.608Z,11.95
2023-01-26T11:21:41.388Z,11.23
2023-01-26T11:24:21.222Z,11.88
2023-01-26T11:27:41.341Z,11.73
2023-01-26T11:30:56.113Z,11.85
2023-01-26T11:33:33.213Z,11.95
2023-01-26T11:36:17.201Z,11.80
2023-01-26T11:39:18.902Z,12.05
2023-01-26T11:42:06.571Z,12.27
2023-01-26T11:45:14.945Z,11.90
2023-01-26T11:48:21.277Z,11.18
2023-01-26T11:51:06.371Z,11.15
2023-01-26T11:53:51.237Z,12.20
2023-01-26T11:56:21.806Z,12.15
2023-01-26T11:59:12.284Z,12.07
2023-01-26T12:01:44.080Z,11.70
2023-01-26T12:04:19.108Z,12.15
2023-01-26T12:06:53.684Z,11.65
2023-01-26T12:09:33.114Z,11.55
2023-01-26T12:12:06.588Z,11.18
2023-01-26T12:15:00.590Z,12.25
2023-01-26T12:17:49.948Z,12.77
2023-01-26T12:20:18.839Z,13.23
2023-01-26T12:22:52.796Z,11.57
2023-01-26T12:25:29.101Z,12.25
2023-01-26T12:28:12.360Z,13.35
2023-01-26T12:30:51.031Z,12.80
2023-01-26T12:33:19.026Z,13.70
2023-01-26T12:36:25.597Z,12.93
2023-01-26T12:38:58.862Z,12.27
2023-01-26T12:41:41.613Z,12.38
2023-01-26T12:44:27.168Z,12.43
2023-01-26T12:47:02.288Z,13.15
2023-01-26T12:49:37.350Z,12.80
2023-01-26T12:52:36.277Z,13.25
2023-01-26T12:55:45.847Z,12.13
2023-01-26T12:58:34.689Z,12.75
2023-01-26T13:01:17.572Z,12.20
2023-01-26T13:03:53.207Z,14.55
2023-01-26T13:06:24.697Z,13.85
2023-01-26T13:08:57.731Z,13.27
2023-01-26T13:11:44.791Z,13.13
2023-01-26T13:14:24.274Z,12.23
2023-01-26T13:16:51.798Z,12.75
2023-01-26T13:19:36.160Z,13.52
2023-01-26T13:22:03.743Z,13.95
2023-01-26T13:24:31.238Z,13.25
2023-01-26T13:26:59.843Z,13.48
2023-01-26T13:29:28.980Z,13.13
2023-01-26T13:32:00.806Z,12.35
2023-01-26T13:34:54.480Z,12.88
2023-01-26T13:37:36.617Z,15.95
2023-01-26T13:40:23.166Z,13.32
2023-01-26T13:43:27.515Z,13.27
2023-01-26T13:46:01.207Z,13.88
2023-01-26T13:48:48.646Z,14.00
2023-01-26T13:51:23.421Z,13.52
2023-01-26T13:54:13.327Z,12.93
2023-01-26T13:56:42.831Z,12.10
2023-01-26T13:59:19.491Z,13.43
2023-01-26T14:01:52.582Z,13.02
2023-01-26T14:04:22.585Z,12.75
2023-01-26T14:07:15.583Z,12.05
2023-01-26T14:09:50.549Z,12.77
2023-01-26T14:12:28.637Z,12.45
2023-01-26T14:15:00.407Z,12.95
2023-01-26T14:17:31.906Z,10.85
2023-01-26T14:20:00.419Z,11.27
2023-01-26T14:22:28.245Z,12.75
2023-01-26T14:24:56.116Z,13.45
2023-01-26T14:27:43.853Z,12.32
2023-01-26T14:30:34.405Z,12.50
2023-01-26T14:33:11.491Z,12.13
2023-01-26T14:35:39.453Z,12.38
2023-01-26T14:38:14.860Z,11.88
2023-01-26T14:40:59.976Z,10.98
2023-01-26T14:43:27.942Z,11.18
2023-01-26T14:46:09.566Z,11.82
2023-01-26T14:48:50.507Z,13.00
2023-01-26T14:51:21.557Z,11.40
2023-01-26T14:53:54.714Z,12.13
2023-01-26T14:56:35.400Z,12.15
2023-01-26T14:59:04.224Z,11.50
2023-01-26T15:01:32.215Z,12.35
2023-01-26T15:04:03.400Z,12.50
2023-01-26T15:06:31.527Z,13.18
2023-01-26T15:09:06.202Z,12.63
2023-01-26T15:11:57.816Z,13.10
2023-01-26T15:14:34.676Z,12.52
2023-01-26T15:17:03.023Z,13.23
2023-01-26T15:19:41.613Z,13.10
2023-01-26T15:22:21.943Z,13.48
2023-01-26T15:25:03.729Z,14.07
2023-01-26T15:27:36.284Z,12.55
2023-01-26T15:30:04.593Z,14.48
2023-01-26T15:32:39.447Z,14.02
2023-01-26T15:35:29.429Z,13.60
2023-01-26T15:38:10.988Z,13.88
2023-01-26T15:40:39.338Z,14.57
2023-01-26T15:43:12.710Z,14.93
2023-01-26T15:45:51.614Z,13.70
2023-01-26T15:48:19.301Z,14.27
2023-01-26T15:50:48.111Z,14.60
2023-01-26T15:53:20.126Z,15.52
2023-01-26T15:55:52.782Z,14.80
2023-01-26T15:58:20.374Z,14.68
2023-01-26T16:00:48.518Z,15.25
2023-01-26T16:03:18.607Z,14.98
2023-01-26T16:05:49.798Z,15.43
2023-01-26T16:08:18.930Z,14.90
2023-01-26T16:10:47.677Z,15.65
2023-01-26T16:13:18.463Z,14.68
2023-01-26T16:15:51.560Z,14.95
2023-01-26T16:18:20.166Z,14.88
2023-01-26T16:20:49.317Z,14.38
2023-01-26T16:23:25.453Z,15.75
2023-01-26T16:25:53.372Z,15.57
2023-01-26T16:28:21.440Z,15.20
2023-01-26T16:30:52.809Z,15.50
2023-01-26T16:33:24.829Z,14.70
2023-01-26T16:38:19.546Z,14.43
2023-01-26T16:40:48.722Z,14.95
2023-01-26T16:43:23.830Z,15.65
2023-01-26T16:45:52.824Z,15.23
2023-01-26T16:48:21.666Z,15.55
2023-01-26T16:50:53.300Z,14.55
2023-01-26T16:53:28.146Z,15.52
2023-01-26T16:55:55.925Z,14.85
2023-01-26T16:58:26.533Z,15.45
2023-01-26T17:00:55.362Z,14.45
2023-01-26T17:03:23.543Z,15.93
2023-01-26T17:05:51.032Z,15.23
2023-01-26T17:08:18.606Z,15.55
2023-01-26T17:11:00.649Z,15.80
2023-01-26T17:13:28.929Z,16.27
2023-01-26T17:15:57.269Z,16.70
2023-01-26T17:18:25.309Z,16.88
2023-01-26T17:20:52.794Z,15.43
2023-01-26T17:23:20.248Z,15.57
2023-01-26T17:25:47.987Z,15.25
2023-01-26T17:28:15.378Z,14.68
2023-01-26T17:30:42.901Z,13.70
2023-01-26T17:33:10.419Z,15.32
2023-01-26T17:35:37.825Z,15.38
2023-01-26T17:38:05.247Z,15.52
2023-01-26T17:40:32.764Z,15.52
2023-01-26T17:43:00.288Z,15.15
2023-01-26T17:45:28.593Z,15.75
2023-01-26T17:47:56.006Z,15.88
2023-01-26T17:50:23.550Z,15.57
2023-01-26T17:52:51.150Z,15.32
2023-01-26T17:55:18.599Z,14.75
2023-01-26T17:57:45.991Z,14.90
2023-01-26T18:00:14.097Z,16.00
2023-01-26T18:02:41.587Z,14.70
2023-01-26T18:05:09.594Z,16.27
2023-01-26T18:07:37.124Z,15.02
2023-01-26T18:10:05.137Z,15.95
2023-01-26T18:12:33.283Z,15.23
2023-01-26T18:15:00.686Z,16.70
2023-01-26T18:17:28.091Z,16.05
2023-01-26T18:19:55.515Z,16.00
2023-01-26T18:22:22.950Z,15.88
2023-01-26T18:24:50.412Z,17.08
2023-01-26T18:27:17.848Z,15.85
2023-01-26T18:29:45.356Z,16.88
2023-01-26T18:32:13.046Z,18.00
2023-01-26T18:34:42.165Z,18.33
2023-01-26T18:37:10.348Z,18.83
2023-01-26T18:39:39.038Z,17.38
2023-01-26T18:42:06.655Z,15.13
2023-01-26T18:44:34.228Z,13.77
2023-01-26T18:47:01.667Z,14.45
2023-01-26T18:49:29.232Z,14.73
2023-01-26T18:51:56.735Z,16.27
2023-01-26T18:54:24.719Z,11.82
2023-01-26T18:56:52.144Z,10.20
2023-01-26T18:59:19.562Z,9.95
2023-01-26T19:01:47.152Z,9.85
2023-01-26T19:04:16.611Z,9.07
2023-01-26T19:06:45.547Z,9.63
2023-01-26T19:09:13.330Z,9.32
2023-01-26T19:11:40.850Z,10.65
2023-01-26T19:14:08.639Z,9.35
2023-01-26T19:16:36.362Z,9.75
2023-01-26T19:19:05.073Z,10.82
2023-01-26T19:21:33.976Z,9.50
2023-01-26T19:24:07.092Z,10.45
2023-01-26T19:26:34.619Z,9.00
2023-01-26T19:29:02.207Z,9.82
2023-01-26T19:31:30.730Z,10.85
2023-01-26T19:34:04.233Z,12.02
2023-01-26T19:36:34.826Z,11.10
2023-01-26T19:39:03.869Z,10.80
2023-01-26T19:41:31.457Z,10.27
2023-01-26T19:43:58.935Z,10.07
2023-01-26T19:46:26.508Z,10.73
2023-01-26T19:48:54.034Z,10.18
2023-01-26T19:51:24.109Z,9.32
2023-01-26T19:53:55.123Z,10.38
2023-01-26T19:56:25.806Z,10.73
2023-01-26T19:59:01.684Z,10.60
2023-01-26T20:01:31.222Z,10.43
2023-01-26T20:04:04.980Z,10.57
2023-01-26T20:06:34.345Z,10.80
2023-01-26T20:09:03.883Z,10.90
2023-01-26T20:11:31.945Z,10.65
2023-01-26T20:14:10.807Z,12.45
2023-01-26T20:16:39.707Z,11.23
2023-01-26T20:19:07.198Z,11.95
2023-01-26T20:21:35.590Z,12.48
2023-01-26T20:24:06.122Z,12.27
2023-01-26T20:26:34.845Z,11.65
2023-01-26T20:29:03.377Z,11.82
2023-01-26T20:31:32.758Z,12.57
2023-01-26T20:34:01.811Z,12.45
2023-01-26T20:36:29.535Z,11.25
2023-01-26T20:38:57.372Z,10.95
2023-01-26T20:41:27.548Z,12.82
2023-01-26T20:44:01.625Z,13.27
2023-01-26T20:46:35.384Z,13.30
2023-01-26T20:49:03.901Z,12.65
2023-01-26T20:51:35.617Z,12.18
2023-01-26T20:54:06.390Z,12.43
2023-01-26T20:56:34.350Z,13.50
2023-01-26T20:59:02.164Z,12.68
2023-01-26T21:01:30.299Z,13.00
2023-01-26T21:03:57.792Z,12.75
2023-01-26T21:06:26.304Z,13.48
2023-01-26T21:08:56.211Z,12.90
2023-01-26T21:11:26.866Z,13.88
2023-01-26T21:13:58.955Z,13.90
2023-01-26T21:16:26.560Z,11.75
2023-01-26T21:18:54.727Z,12.82
2023-01-26T21:21:22.684Z,12.48
2023-01-26T21:23:51.183Z,12.73
2023-01-26T21:26:22.321Z,13.43
2023-01-26T21:28:54.815Z,13.17
2023-01-26T21:31:25.109Z,13.88
2023-01-26T21:33:53.480Z,13.57
2023-01-26T21:36:23.194Z,12.82
2023-01-26T21:38:53.007Z,13.23
2023-01-26T21:41:40.459Z,13.45
2023-01-26T21:44:11.733Z,15.50
2023-01-26T21:46:39.888Z,14.07
2023-01-26T21:49:08.298Z,13.77
2023-01-26T21:51:55.119Z,12.98
2023-01-26T21:54:22.997Z,12.98
2023-01-26T21:56:50.461Z,15.00
2023-01-26T21:59:19.103Z,13.98
2023-01-26T22:01:49.458Z,14.00
2023-01-26T22:04:22.811Z,13.93
2023-01-26T22:06:52.081Z,15.73
2023-01-26T22:09:21.418Z,14.93
2023-01-26T22:11:50.614Z,15.25
2023-01-26T22:14:21.662Z,16.20
2023-01-26T22:16:49.670Z,15.65
2023-01-26T22:19:17.338Z,15.30
2023-01-26T22:21:45.148Z,16.83
2023-01-26T22:24:14.484Z,16.17
2023-01-26T22:26:42.404Z,17.02
2023-01-26T22:29:12.670Z,15.05
2023-01-26T22:31:40.196Z,15.45
2023-01-26T22:34:08.292Z,16.17
2023-01-26T22:36:35.705Z,14.90
2023-01-26T22:39:03.949Z,14.48
2023-01-26T22:41:31.471Z,15.27
2023-01-26T22:44:00.191Z,15.02
2023-01-26T22:46:29.650Z,15.10
2023-01-26T22:49:00.392Z,15.65
2023-01-26T22:51:33.148Z,13.93
2023-01-26T22:54:00.797Z,13.25
2023-01-26T22:56:28.360Z,14.38
2023-01-26T22:58:59.925Z,13.90
2023-01-26T23:03:57.475Z,12.10
2023-01-26T23:06:26.087Z,11.75
2023-01-26T23:08:54.712Z,11.93
2023-01-26T23:11:27.674Z,13.05
2023-01-26T23:13:56.648Z,11.95
2023-01-26T23:16:25.244Z,11.85
2023-01-26T23:18:55.184Z,10.02
2023-01-26T23:21:22.895Z,12.48
2023-01-26T23:23:50.671Z,11.60
2023-01-26T23:26:18.652Z,11.45
2023-01-26T23:28:46.455Z,11.57
2023-01-26T23:31:16.259Z,11.00
2023-01-26T23:33:44.189Z,10.48
2023-01-26T23:36:13.199Z,10.93
2023-01-26T23:38:40.742Z,12.27
2023-01-26T23:41:10.871Z,11.45
2023-01-26T23:43:38.688Z,11.35
2023-01-26T23:46:07.545Z,11.20
2023-01-26T23:48:35.527Z,11.63
2023-01-26T23:51:06.400Z,11.00
2023-01-26T23:53:34.142Z,11.38
2023-01-26T23:56:10.169Z,10.88
2023-01-26T23:58:37.746Z,11.65
